Time;durP1;ratioP1;P1;durP2;ratioP2;P2;SDS_P1;SDS_P2;PMS_P1;PMS_P2;Temp;Humidity;BMP_temperature;BMP_pressure;BME280_temperature;BME280_humidity;BME280_pressure;Samples;Min_cycle;Max_cycle;Signal;HPM_P1;HPM_P2
2022/09/07 00:01:07;;;;;;;2.30;1.20;;;24.20;99.90;;;;;;4934194;28;20732;-79
2022/09/07 00:03:36;;;;;;;1.37;1.27;;;24.30;99.90;;;;;;4938831;28;20453;-78
2022/09/07 00:06:08;;;;;;;1.47;1.10;;;24.20;99.90;;;;;;4932606;29;20512;-78
2022/09/07 00:08:37;;;;;;;2.10;1.20;;;24.30;99.90;;;;;;4940692;29;20456;-79
2022/09/07 00:11:08;;;;;;;2.30;1.10;;;24.10;99.90;;;;;;4932908;29;21044;-79
2022/09/07 00:13:38;;;;;;;1.50;1.23;;;24.20;99.90;;;;;;4925857;29;21046;-79
2022/09/07 00:16:08;;;;;;;1.50;1.10;;;24.30;99.90;;;;;;4940026;29;20464;-79
2022/09/07 00:18:37;;;;;;;2.90;1.10;;;24.40;99.90;;;;;;4933270;29;20457;-79
2022/09/07 00:21:14;;;;;;;2.00;1.17;;;24.40;99.90;;;;;;4939068;29;20854;-79
2022/09/07 00:23:42;;;;;;;1.87;1.10;;;24.50;99.90;;;;;;4923761;29;20459;-79
2022/09/07 00:26:12;;;;;;;1.87;1.30;;;24.60;99.90;;;;;;4930374;29;20964;-80
2022/09/07 00:28:41;;;;;;;1.57;1.20;;;24.60;99.90;;;;;;4933386;29;20860;-78
2022/09/07 00:31:11;;;;;;;5.40;1.40;;;24.70;99.90;;;;;;4923124;29;20508;-79
2022/09/07 00:33:41;;;;;;;1.07;0.80;;;24.80;99.90;;;;;;4935000;29;20472;-79
2022/09/07 00:36:09;;;;;;;2.53;1.10;;;24.80;99.90;;;;;;4930775;29;20536;-80
2022/09/07 00:38:39;;;;;;;2.37;1.03;;;24.80;99.90;;;;;;4931969;29;20460;-79
2022/09/07 00:41:07;;;;;;;1.93;1.20;;;24.80;99.90;;;;;;4923232;29;20494;-79
2022/09/07 00:43:37;;;;;;;1.53;1.43;;;24.80;99.90;;;;;;4928168;29;20460;-79
2022/09/07 00:46:07;;;;;;;1.10;1.00;;;24.80;99.90;;;;;;4931918;28;20456;-79
2022/09/07 00:48:40;;;;;;;2.97;1.20;;;24.80;99.90;;;;;;4930328;29;20836;-80
2022/09/07 00:51:13;;;;;;;1.10;1.00;;;24.70;99.90;;;;;;4937102;29;20476;-78
2022/09/07 00:53:46;;;;;;;1.20;1.10;;;24.70;99.90;;;;;;4925435;29;20468;-78
2022/09/07 00:56:15;;;;;;;1.27;1.17;;;24.70;99.90;;;;;;4927406;29;20467;-78
2022/09/07 00:58:44;;;;;;;2.20;1.00;;;24.60;99.90;;;;;;4933773;29;21140;-78
2022/09/07 01:01:12;;;;;;;1.07;1.03;;;24.60;99.90;;;;;;4924942;29;20473;-79
2022/09/07 01:03:46;;;;;;;1.77;1.00;;;24.60;99.90;;;;;;4927096;29;20460;-78
2022/09/07 01:06:17;;;;;;;1.30;1.20;;;24.50;99.90;;;;;;4934306;29;20462;-78
2022/09/07 01:08:49;;;;;;;3.10;1.20;;;24.50;99.90;;;;;;4929409;29;20486;-78
2022/09/07 01:11:19;;;;;;;3.10;1.30;;;24.40;99.90;;;;;;4926838;29;20477;-78
2022/09/07 01:13:49;;;;;;;1.23;1.10;;;24.40;99.90;;;;;;4928929;29;20509;-79
2022/09/07 01:16:31;;;;;;;1.90;1.03;;;24.30;99.90;;;;;;4930828;28;20523;-78
2022/09/07 01:19:13;;;;;;;1.23;1.13;;;24.30;99.90;;;;;;4931351;29;20464;-78
2022/09/07 01:21:57;;;;;;;1.87;0.97;;;24.30;99.90;;;;;;4935198;29;20511;-78
2022/09/07 01:24:39;;;;;;;2.33;2.10;;;24.20;99.90;;;;;;4931067;29;20455;-78
2022/09/07 01:27:34;;;;;;;1.30;1.20;;;24.20;99.90;;;;;;4930342;29;20456;-79
2022/09/07 01:30:06;;;;;;;2.87;1.23;;;24.10;99.90;;;;;;4934396;29;20444;-78
2022/09/07 01:32:55;;;;;;;1.30;1.20;;;24.00;99.90;;;;;;4936638;29;20449;-78
2022/09/07 01:35:37;;;;;;;1.27;1.10;;;23.90;99.90;;;;;;4933206;29;20603;-78
2022/09/07 01:38:14;;;;;;;2.30;1.00;;;24.00;99.90;;;;;;4926943;29;20469;-78
2022/09/07 01:40:52;;;;;;;1.60;1.17;;;24.10;99.90;;;;;;4936448;29;20491;-79
2022/09/07 01:43:32;;;;;;;1.83;1.00;;;24.10;99.90;;;;;;4927447;29;20468;-78
2022/09/07 01:46:05;;;;;;;2.40;1.10;;;24.10;99.90;;;;;;4934380;29;20452;-80
2022/09/07 01:48:37;;;;;;;2.20;1.20;;;24.20;99.90;;;;;;4928335;29;20510;-79
2022/09/07 01:51:06;;;;;;;2.40;1.33;;;24.20;99.90;;;;;;4935896;29;20480;-79
2022/09/07 01:53:39;;;;;;;2.30;1.23;;;24.20;99.90;;;;;;4934602;29;20468;-78
2022/09/07 01:56:12;;;;;;;1.83;1.27;;;24.20;99.90;;;;;;4933405;29;20487;-79
2022/09/07 01:58:45;;;;;;;1.30;1.20;;;24.20;99.90;;;;;;4939047;29;20472;-78
2022/09/07 02:01:21;;;;;;;1.40;1.30;;;24.20;99.90;;;;;;4938366;29;20671;-79
2022/09/07 02:03:53;;;;;;;3.00;1.50;;;24.20;99.90;;;;;;4936897;29;20460;-79
2022/09/07 02:06:28;;;;;;;3.60;1.47;;;24.20;99.90;;;;;;4929664;29;21311;-79
2022/09/07 02:09:01;;;;;;;1.90;1.60;;;24.10;99.90;;;;;;4929506;29;20456;-79
2022/09/07 02:11:35;;;;;;;2.97;1.40;;;24.00;99.90;;;;;;4929408;29;20504;-79
2022/09/07 02:14:09;;;;;;;2.53;1.23;;;24.00;99.90;;;;;;4928693;29;20575;-79
2022/09/07 02:16:46;;;;;;;1.50;1.40;;;24.10;99.90;;;;;;4930760;29;21062;-77
2022/09/07 02:19:18;;;;;;;1.63;1.50;;;24.20;99.90;;;;;;4933701;29;20518;-78
2022/09/07 02:21:51;;;;;;;3.33;1.97;;;24.30;99.90;;;;;;4940439;29;20488;-78
2022/09/07 02:24:25;;;;;;;3.03;1.50;;;24.40;99.90;;;;;;4928390;29;20910;-78
2022/09/07 02:26:55;;;;;;;5.17;1.60;;;24.40;99.90;;;;;;4936436;28;20469;-79
2022/09/07 02:29:24;;;;;;;2.10;1.30;;;24.40;99.90;;;;;;4930966;29;20468;-78
2022/09/07 02:31:59;;;;;;;4.10;1.20;;;24.30;99.90;;;;;;4935177;29;20483;-78
2022/09/07 02:34:27;;;;;;;1.50;1.40;;;24.30;99.90;;;;;;4937699;29;20500;-79
2022/09/07 02:36:57;;;;;;;1.90;1.30;;;24.30;99.90;;;;;;4950960;28;20495;-78
2022/09/07 02:39:25;;;;;;;1.90;1.80;;;24.40;99.90;;;;;;4934572;29;20472;-78
2022/09/07 02:41:54;;;;;;;1.47;1.30;;;24.40;99.90;;;;;;4925688;29;20491;-78
2022/09/07 02:44:25;;;;;;;2.73;1.20;;;24.40;99.90;;;;;;4930962;28;20979;-79
2022/09/07 02:47:12;;;;;;;2.60;1.20;;;24.50;99.90;;;;;;4934374;29;20494;-78
2022/09/07 02:50:21;;;;;;;2.43;1.10;;;24.50;99.90;;;;;;4937272;29;20466;-78
2022/09/07 02:52:59;;;;;;;1.50;1.40;;;24.40;99.90;;;;;;4906770;29;20469;-79
2022/09/07 02:55:40;;;;;;;1.30;1.20;;;24.40;99.90;;;;;;4927989;29;20488;-78
2022/09/07 02:58:24;;;;;;;1.90;1.80;;;24.50;99.90;;;;;;4930827;29;20959;-78
2022/09/07 03:01:03;;;;;;;1.37;1.27;;;24.50;99.90;;;;;;4926992;29;20491;-78
2022/09/07 03:03:42;;;;;;;1.50;1.40;;;24.50;99.90;;;;;;4928184;29;20644;-78
2022/09/07 03:06:18;;;;;;;2.50;1.33;;;24.50;99.90;;;;;;4924390;29;20514;-79
2022/09/07 03:08:48;;;;;;;2.33;1.53;;;24.50;99.90;;;;;;4937261;29;20460;-79
2022/09/07 03:11:17;;;;;;;3.07;1.60;;;24.50;99.90;;;;;;4937373;29;20494;-78
2022/09/07 03:13:45;;;;;;;3.13;1.70;;;24.50;99.90;;;;;;4929529;29;20552;-79
2022/09/07 03:16:15;;;;;;;2.00;1.77;;;24.50;99.90;;;;;;4930030;29;20477;-79
2022/09/07 03:18:44;;;;;;;1.90;1.50;;;24.40;99.90;;;;;;4937657;29;20453;-79
2022/09/07 03:21:13;;;;;;;3.43;2.23;;;24.40;99.90;;;;;;4934947;28;20480;-79
2022/09/07 03:23:41;;;;;;;8.13;1.67;;;24.50;99.90;;;;;;4932953;29;20476;-79
2022/09/07 03:26:23;;;;;;;2.47;1.90;;;24.40;99.90;;;;;;4931475;29;20494;-78
2022/09/07 03:28:51;;;;;;;1.70;1.60;;;24.40;99.90;;;;;;4930838;29;20863;-78
2022/09/07 03:31:19;;;;;;;1.70;1.50;;;24.30;99.90;;;;;;4926926;29;20492;-79
2022/09/07 03:33:49;;;;;;;2.90;2.27;;;24.30;99.90;;;;;;4941899;29;20461;-77
2022/09/07 03:36:17;;;;;;;2.17;1.70;;;24.20;99.90;;;;;;4931129;29;20488;-79
2022/09/07 03:38:46;;;;;;;2.53;1.50;;;24.20;99.90;;;;;;4931079;29;21027;-79
2022/09/07 03:41:14;;;;;;;1.90;1.80;;;24.20;99.90;;;;;;4936216;29;20473;-78
2022/09/07 03:43:42;;;;;;;6.90;2.63;;;24.20;99.90;;;;;;4926804;29;20461;-79
2022/09/07 03:46:10;;;;;;;2.33;1.90;;;24.10;99.90;;;;;;4932536;29;20465;-78
2022/09/07 03:48:39;;;;;;;2.80;1.60;;;24.10;99.90;;;;;;4933057;29;20545;-78
2022/09/07 03:51:10;;;;;;;4.17;2.50;;;24.10;99.90;;;;;;4940618;29;20484;-78
2022/09/07 03:53:41;;;;;;;3.17;1.77;;;24.10;99.90;;;;;;4938424;29;20464;-79
2022/09/07 03:56:11;;;;;;;2.50;1.40;;;24.10;99.90;;;;;;4931935;28;20909;-78
2022/09/07 03:58:39;;;;;;;2.43;1.60;;;24.10;99.90;;;;;;4938888;29;20467;-78
2022/09/07 04:01:10;;;;;;;2.37;1.60;;;24.10;99.90;;;;;;4931041;29;20502;-78
2022/09/07 04:03:39;;;;;;;3.53;1.73;;;24.10;99.90;;;;;;4927743;29;20871;-78
2022/09/07 04:06:09;;;;;;;1.80;1.70;;;24.00;99.90;;;;;;4931603;29;20471;-78
2022/09/07 04:08:39;;;;;;;4.17;2.00;;;24.00;99.90;;;;;;4926480;29;20471;-78
2022/09/07 04:11:10;;;;;;;1.60;1.50;;;24.00;99.90;;;;;;4931332;29;20487;-79
2022/09/07 04:13:38;;;;;;;2.10;1.47;;;24.00;99.90;;;;;;4926543;29;20885;-78
2022/09/07 04:16:11;;;;;;;2.60;1.60;;;24.00;99.90;;;;;;4931930;29;20495;-79
2022/09/07 04:18:39;;;;;;;2.10;1.50;;;24.00;99.90;;;;;;4934254;29;20461;-78
2022/09/07 04:21:10;;;;;;;2.20;1.67;;;24.00;99.90;;;;;;4932387;28;20488;-78
2022/09/07 04:23:39;;;;;;;1.93;1.80;;;24.00;99.90;;;;;;4925342;29;20815;-77
2022/09/07 04:26:13;;;;;;;2.60;1.67;;;24.40;99.90;;;;;;4930952;29;20959;-79
2022/09/07 04:28:41;;;;;;;2.77;1.97;;;23.80;99.90;;;;;;4932247;28;21017;-78
2022/09/07 04:31:09;;;;;;;1.50;1.40;;;23.80;99.90;;;;;;4923062;29;20478;-77
2022/09/07 04:33:38;;;;;;;2.87;1.70;;;23.70;99.90;;;;;;4932612;29;20480;-79
2022/09/07 04:36:07;;;;;;;3.23;1.50;;;23.70;99.90;;;;;;4933256;29;20471;-79
2022/09/07 04:38:38;;;;;;;2.20;1.57;;;23.70;99.90;;;;;;4927288;29;20781;-78
2022/09/07 04:41:09;;;;;;;1.83;1.53;;;23.70;99.90;;;;;;4924106;29;20472;-78
2022/09/07 04:43:39;;;;;;;4.10;1.43;;;23.70;99.90;;;;;;4924360;29;20464;-78
2022/09/07 04:46:10;;;;;;;4.63;1.50;;;23.70;99.90;;;;;;4923462;29;20453;-78
2022/09/07 04:48:39;;;;;;;2.67;1.50;;;23.70;99.90;;;;;;4925390;29;20558;-79
2022/09/07 04:51:09;;;;;;;1.73;1.57;;;23.70;99.90;;;;;;4927599;29;20491;-79
2022/09/07 04:53:39;;;;;;;3.67;1.43;;;23.50;99.90;;;;;;4929700;29;20516;-79
2022/09/07 04:56:07;;;;;;;6.10;2.47;;;23.40;99.90;;;;;;4925958;29;20483;-79
2022/09/07 04:58:36;;;;;;;2.50;1.50;;;23.30;99.90;;;;;;4918491;29;21303;-79
2022/09/07 05:01:05;;;;;;;2.73;1.57;;;23.10;99.90;;;;;;4927370;29;20478;-80
2022/09/07 05:03:36;;;;;;;3.23;1.60;;;22.80;99.90;;;;;;4921840;29;20444;-79
2022/09/07 05:06:06;;;;;;;5.27;1.77;;;22.70;99.90;;;;;;4928472;29;20463;-79
2022/09/07 05:08:40;;;;;;;2.47;1.50;;;22.60;99.90;;;;;;4921806;29;20821;-78
2022/09/07 05:11:09;;;;;;;1.77;1.57;;;22.10;99.90;;;;;;4928885;29;20478;-79
2022/09/07 05:13:38;;;;;;;4.17;1.70;;;23.00;99.90;;;;;;4930431;29;20870;-79
2022/09/07 05:16:09;;;;;;;2.93;1.60;;;23.00;99.90;;;;;;4927333;29;20576;-77
2022/09/07 05:18:38;;;;;;;2.80;1.33;;;22.90;99.90;;;;;;4925785;29;21005;-80
2022/09/07 05:21:11;;;;;;;2.70;1.60;;;22.90;99.90;;;;;;4927267;29;21021;-79
2022/09/07 05:23:40;;;;;;;2.83;1.50;;;22.90;99.90;;;;;;4926506;29;20475;-79
2022/09/07 05:26:10;;;;;;;2.07;1.87;;;23.00;99.90;;;;;;4930095;29;20482;-78
2022/09/07 05:28:39;;;;;;;4.37;1.60;;;23.00;99.90;;;;;;4933751;29;20458;-78
2022/09/07 05:31:08;;;;;;;1.80;1.30;;;23.10;99.90;;;;;;4930347;29;21007;-78
2022/09/07 05:33:47;;;;;;;2.00;1.50;;;22.90;99.90;;;;;;4933567;29;21032;-77
2022/09/07 05:36:36;;;;;;;1.60;1.47;;;22.90;99.90;;;;;;4935594;29;20487;-78
2022/09/07 05:39:06;;;;;;;2.20;1.60;;;23.00;99.90;;;;;;4941789;29;20869;-79
2022/09/07 05:41:35;;;;;;;2.73;1.30;;;22.80;99.90;;;;;;4929890;29;20480;-78
2022/09/07 05:44:04;;;;;;;2.90;1.50;;;22.70;99.90;;;;;;4940110;29;20460;-78
2022/09/07 05:46:52;;;;;;;9.00;1.83;;;22.80;99.90;;;;;;4935829;29;20556;-78
2022/09/07 05:49:21;;;;;;;3.13;1.80;;;22.80;99.90;;;;;;4934318;29;20534;-79
2022/09/07 05:51:49;;;;;;;1.80;1.50;;;22.80;99.90;;;;;;4939067;29;20487;-78
2022/09/07 05:54:18;;;;;;;1.67;1.40;;;22.80;99.90;;;;;;4939468;28;20467;-80
2022/09/07 05:56:47;;;;;;;2.33;1.80;;;22.80;99.90;;;;;;4937633;29;20493;-80
2022/09/07 05:59:15;;;;;;;3.80;2.23;;;22.80;99.90;;;;;;4940693;28;20471;-78
2022/09/07 06:01:43;;;;;;;4.30;1.50;;;22.80;99.90;;;;;;4941939;28;20479;-77
2022/09/07 06:04:11;;;;;;;4.10;1.57;;;22.90;99.90;;;;;;4933054;29;20451;-79
2022/09/07 06:06:39;;;;;;;2.10;1.67;;;22.90;99.90;;;;;;4934079;28;20458;-80
2022/09/07 06:09:10;;;;;;;2.37;1.60;;;23.00;99.90;;;;;;4941359;29;20476;-79
2022/09/07 06:11:39;;;;;;;2.30;1.63;;;23.10;99.90;;;;;;4935540;29;20484;-78
2022/09/07 06:14:08;;;;;;;5.80;1.60;;;23.20;99.90;;;;;;4931147;29;21161;-78
2022/09/07 06:16:36;;;;;;;3.87;1.60;;;23.30;99.90;;;;;;4937437;29;20477;-78
2022/09/07 06:19:06;;;;;;;2.07;1.60;;;23.30;99.90;;;;;;4933701;29;20460;-80
2022/09/07 06:21:36;;;;;;;3.63;1.90;;;23.30;99.90;;;;;;4935409;29;20478;-79
2022/09/07 06:24:04;;;;;;;1.33;1.23;;;23.40;99.90;;;;;;4928087;29;21035;-78
2022/09/07 06:26:33;;;;;;;3.60;1.67;;;23.50;99.90;;;;;;4940594;29;20496;-81
2022/09/07 06:29:03;;;;;;;3.97;1.47;;;23.60;99.90;;;;;;4933462;29;20808;-78
2022/09/07 06:31:32;;;;;;;2.03;1.40;;;23.70;99.90;;;;;;4927856;29;20549;-79
2022/09/07 06:34:01;;;;;;;1.43;1.20;;;23.70;99.90;;;;;;4934847;29;20521;-79
2022/09/07 06:36:29;;;;;;;3.13;1.60;;;23.90;99.90;;;;;;4929062;29;20456;-79
2022/09/07 06:39:01;;;;;;;2.60;1.50;;;24.00;99.90;;;;;;4936707;29;20491;-79
2022/09/07 06:41:30;;;;;;;3.33;1.70;;;24.10;99.90;;;;;;4931849;28;20476;-79
2022/09/07 06:44:20;;;;;;;2.00;1.80;;;24.20;99.90;;;;;;4931458;29;20468;-79
2022/09/07 06:46:48;;;;;;;4.13;1.80;;;24.20;99.90;;;;;;4928882;29;20465;-79
2022/09/07 06:49:32;;;;;;;3.07;1.73;;;24.20;99.90;;;;;;4935154;29;20523;-79
2022/09/07 06:52:00;;;;;;;1.57;1.40;;;24.10;99.90;;;;;;4940269;29;20477;-79
2022/09/07 06:54:28;;;;;;;2.50;1.60;;;24.10;99.90;;;;;;4933711;29;20488;-80
2022/09/07 06:57:16;;;;;;;2.20;1.50;;;24.10;99.90;;;;;;4937376;29;20525;-79
2022/09/07 06:59:46;;;;;;;2.00;1.83;;;24.10;99.90;;;;;;4932674;29;20468;-79
2022/09/07 07:02:14;;;;;;;2.90;1.43;;;24.00;99.90;;;;;;4924705;29;20627;-80
2022/09/07 07:04:43;;;;;;;3.03;1.40;;;24.00;99.90;;;;;;4928334;29;20605;-79
2022/09/07 07:07:12;;;;;;;1.73;1.33;;;24.10;99.90;;;;;;4934776;29;20903;-79
2022/09/07 07:09:40;;;;;;;3.07;1.60;;;24.20;99.90;;;;;;4938230;28;20468;-78
2022/09/07 07:12:09;;;;;;;2.37;1.70;;;24.20;99.90;;;;;;4930049;29;20475;-80
2022/09/07 07:14:37;;;;;;;3.73;1.70;;;24.30;99.90;;;;;;4930802;29;20461;-80
2022/09/07 07:17:13;;;;;;;2.57;1.50;;;24.30;99.90;;;;;;4936286;29;20467;-80
2022/09/07 07:19:41;;;;;;;3.80;1.80;;;24.30;99.90;;;;;;4936564;29;20459;-78
2022/09/07 07:22:09;;;;;;;1.83;1.70;;;24.20;99.90;;;;;;4933130;29;20479;-80
2022/09/07 07:24:58;;;;;;;2.00;1.80;;;24.10;99.90;;;;;;4936533;29;20567;-79
2022/09/07 07:27:26;;;;;;;1.53;1.40;;;24.20;99.90;;;;;;4938701;29;20464;-78
2022/09/07 07:29:54;;;;;;;6.50;1.40;;;24.30;99.90;;;;;;4937810;29;20464;-80
2022/09/07 07:32:24;;;;;;;2.10;1.60;;;24.40;99.90;;;;;;4931905;29;20488;-80
2022/09/07 07:34:52;;;;;;;3.47;1.40;;;24.30;99.90;;;;;;4939225;29;20475;-80
2022/09/07 07:37:21;;;;;;;3.27;1.20;;;24.40;99.90;;;;;;4941948;29;20488;-80
2022/09/07 07:39:55;;;;;;;1.60;1.33;;;24.50;99.90;;;;;;4939954;29;20910;-80
2022/09/07 07:42:43;;;;;;;2.50;1.57;;;24.60;99.90;;;;;;4934504;29;20695;-80
2022/09/07 07:45:12;;;;;;;2.90;1.63;;;24.60;99.90;;;;;;4938353;29;20804;-80
2022/09/07 07:48:02;;;;;;;4.47;1.80;;;24.70;99.90;;;;;;4930598;29;20960;-80
2022/09/07 07:50:30;;;;;;;2.83;1.53;;;24.80;99.90;;;;;;4927618;29;20498;-80
2022/09/07 07:53:00;;;;;;;3.43;1.53;;;24.80;99.90;;;;;;4951997;28;20466;-80
2022/09/07 07:55:49;;;;;;;2.83;1.60;;;25.00;99.90;;;;;;4933930;29;20498;-80
2022/09/07 07:58:17;;;;;;;1.53;1.43;;;25.10;99.90;;;;;;4940007;29;20499;-80
2022/09/07 08:00:45;;;;;;;3.73;1.57;;;25.20;99.90;;;;;;4931409;29;20480;-80
2022/09/07 08:03:25;;;;;;;5.60;1.53;;;25.20;99.90;;;;;;4932734;29;20544;-80
2022/09/07 08:05:54;;;;;;;2.53;1.87;;;25.30;99.90;;;;;;4936136;29;20548;-80
2022/09/07 08:08:23;;;;;;;2.53;1.60;;;25.30;99.90;;;;;;4935708;29;20565;-80
2022/09/07 08:10:52;;;;;;;2.73;1.43;;;25.40;99.90;;;;;;4937923;28;20973;-79
2022/09/07 08:13:21;;;;;;;5.20;2.00;;;25.50;99.90;;;;;;4937233;28;20457;-80
2022/09/07 08:15:49;;;;;;;2.77;1.80;;;25.50;99.90;;;;;;4930172;29;20472;-80
2022/09/07 08:18:18;;;;;;;2.97;1.60;;;25.60;99.90;;;;;;4935813;29;20854;-80
2022/09/07 08:20:47;;;;;;;3.50;1.50;;;25.60;99.90;;;;;;4925747;29;20473;-80
2022/09/07 08:23:19;;;;;;;3.17;1.43;;;25.70;99.90;;;;;;4936505;29;20456;-80
2022/09/07 08:25:51;;;;;;;2.50;1.40;;;25.70;99.90;;;;;;4932015;29;20831;-78
2022/09/07 08:28:20;;;;;;;2.80;1.30;;;25.70;99.90;;;;;;4939775;29;20940;-80
2022/09/07 08:30:49;;;;;;;4.17;1.80;;;25.80;99.90;;;;;;4933089;29;20471;-80
2022/09/07 08:33:17;;;;;;;4.03;1.83;;;25.90;99.90;;;;;;4935722;29;20791;-79
2022/09/07 08:35:58;;;;;;;4.97;2.03;;;25.90;99.90;;;;;;4933885;29;20975;-79
2022/09/07 08:38:28;;;;;;;4.30;1.73;;;25.90;99.90;;;;;;4933236;29;20477;-80
2022/09/07 08:40:57;;;;;;;4.30;1.70;;;25.80;99.90;;;;;;4938563;29;20473;-80
2022/09/07 08:43:38;;;;;;;2.97;1.77;;;25.90;99.90;;;;;;4933570;29;20457;-80
2022/09/07 08:46:17;;;;;;;1.83;1.50;;;25.90;99.90;;;;;;4927883;29;20473;-79
2022/09/07 08:48:46;;;;;;;2.90;1.50;;;25.90;99.90;;;;;;4935382;29;20563;-82
2022/09/07 08:51:21;;;;;;;2.20;1.43;;;25.90;99.90;;;;;;4936891;29;20560;-81
2022/09/07 08:53:52;;;;;;;2.87;1.90;;;26.00;99.90;;;;;;4927989;29;20471;-81
2022/09/07 08:56:27;;;;;;;2.00;1.43;;;26.00;99.90;;;;;;4938472;29;20475;-81
2022/09/07 08:59:06;;;;;;;3.40;1.67;;;26.10;99.90;;;;;;4933155;29;20994;-81
2022/09/07 09:01:39;;;;;;;2.77;1.63;;;26.10;99.90;;;;;;4936188;29;20558;-80
2022/09/07 09:04:13;;;;;;;4.13;1.90;;;26.20;99.90;;;;;;4933742;29;20479;-82
2022/09/07 09:07:02;;;;;;;5.90;2.20;;;26.30;99.90;;;;;;4932307;29;20452;-81
2022/09/07 09:09:42;;;;;;;2.23;1.80;;;26.20;99.90;;;;;;4938824;29;20517;-81
2022/09/07 09:12:21;;;;;;;2.20;1.53;;;26.20;99.90;;;;;;4933704;29;20493;-81
2022/09/07 09:15:03;;;;;;;1.97;1.30;;;26.20;99.90;;;;;;4939471;29;20474;-82
2022/09/07 09:17:37;;;;;;;3.57;1.67;;;26.30;99.90;;;;;;4935994;29;20503;-82
2022/09/07 09:20:22;;;;;;;3.23;2.00;;;26.40;99.90;;;;;;4937662;29;20691;-81
2022/09/07 09:22:57;;;;;;;2.37;1.30;;;26.50;99.90;;;;;;4933920;29;20849;-80
2022/09/07 09:25:33;;;;;;;1.40;1.10;;;26.40;99.90;;;;;;4935729;29;20471;-81
2022/09/07 09:28:01;;;;;;;2.30;1.60;;;26.50;99.90;;;;;;4939220;29;20520;-81
2022/09/07 09:30:30;;;;;;;2.20;1.90;;;26.60;99.90;;;;;;4933701;29;20534;-80
2022/09/07 09:33:14;;;;;;;3.80;1.33;;;26.60;99.90;;;;;;4927978;29;20858;-81
2022/09/07 09:35:44;;;;;;;2.50;1.80;;;26.60;99.90;;;;;;4942944;29;20455;-81
2022/09/07 09:38:32;;;;;;;5.17;1.70;;;26.70;99.90;;;;;;4942014;29;21831;-80
2022/09/07 09:41:09;;;;;;;7.73;1.33;;;26.70;99.90;;;;;;4940274;29;20484;-81
2022/09/07 09:43:44;;;;;;;1.53;1.43;;;26.60;99.90;;;;;;4942408;29;20555;-81
2022/09/07 09:46:20;;;;;;;3.17;1.47;;;26.60;99.90;;;;;;4933225;29;20468;-81
2022/09/07 09:48:55;;;;;;;3.83;1.40;;;26.70;99.90;;;;;;4941782;29;20475;-81
2022/09/07 09:51:27;;;;;;;5.73;1.40;;;26.80;99.90;;;;;;4931725;29;20493;-81
2022/09/07 09:54:23;;;;;;;1.30;1.17;;;26.80;99.90;;;;;;4926505;29;20486;-81
2022/09/07 09:56:51;;;;;;;2.50;1.50;;;26.90;99.90;;;;;;4925742;29;20488;-79
2022/09/07 09:59:22;;;;;;;1.70;1.40;;;26.90;99.90;;;;;;4935337;29;20868;-81
2022/09/07 10:02:29;;;;;;;2.10;1.30;;;27.00;99.90;;;;;;4929764;29;20850;-82
2022/09/07 10:05:26;;;;;;;2.73;1.20;;;27.00;99.90;;;;;;4936039;29;20460;-82
2022/09/07 10:07:55;;;;;;;1.70;1.23;;;27.10;99.90;;;;;;4936846;29;20480;-82
2022/09/07 10:10:26;;;;;;;3.23;2.30;;;27.10;99.90;;;;;;4926960;29;20461;-82
2022/09/07 10:12:55;;;;;;;3.40;1.60;;;27.10;99.90;;;;;;4933179;29;20488;-82
2022/09/07 10:15:34;;;;;;;3.53;1.73;;;27.00;99.90;;;;;;4935359;29;20500;-81
2022/09/07 10:18:16;;;;;;;3.97;1.60;;;27.00;99.90;;;;;;4935132;29;20557;-81
2022/09/07 10:20:44;;;;;;;3.33;1.80;;;27.10;99.90;;;;;;4941850;29;20487;-81
2022/09/07 10:23:21;;;;;;;2.03;1.73;;;27.10;99.90;;;;;;4939345;29;20461;-81
2022/09/07 10:25:51;;;;;;;5.07;1.87;;;27.20;99.90;;;;;;4935025;29;20492;-81
2022/09/07 10:28:21;;;;;;;1.50;1.27;;;27.30;99.90;;;;;;4945683;29;20512;-82
2022/09/07 10:31:02;;;;;;;1.73;1.23;;;27.40;99.90;;;;;;4932196;29;20476;-82
2022/09/07 10:33:45;;;;;;;2.40;1.40;;;27.40;99.90;;;;;;4936966;29;20542;-82
2022/09/07 10:36:38;;;;;;;2.47;1.37;;;27.40;99.90;;;;;;4939824;29;20483;-82
2022/09/07 10:39:14;;;;;;;3.80;1.40;;;27.40;99.90;;;;;;4943679;29;20481;-82
2022/09/07 10:41:48;;;;;;;2.57;1.80;;;27.40;99.90;;;;;;4931124;29;20661;-83
2022/09/07 10:44:31;;;;;;;1.83;1.30;;;27.30;99.90;;;;;;4939628;29;20841;-82
2022/09/07 10:47:04;;;;;;;1.30;1.20;;;27.40;99.90;;;;;;4937371;29;20552;-81
2022/09/07 10:49:41;;;;;;;2.00;1.53;;;27.40;99.90;;;;;;4931398;29;20476;-82
2022/09/07 10:52:38;;;;;;;3.07;1.47;;;27.40;99.90;;;;;;4923480;29;20544;-82
2022/09/07 10:55:13;;;;;;;1.30;1.20;;;27.30;99.90;;;;;;4946263;29;20468;-81
2022/09/07 10:57:58;;;;;;;3.23;1.23;;;27.40;99.90;;;;;;4935285;29;20464;-82
2022/09/07 11:00:32;;;;;;;1.70;1.43;;;27.50;99.90;;;;;;4926132;29;20477;-80
2022/09/07 11:03:24;;;;;;;4.37;1.30;;;27.60;99.90;;;;;;4931947;29;21055;-82
2022/09/07 11:06:13;;;;;;;1.80;1.17;;;27.50;99.90;;;;;;4928203;29;20471;-81
2022/09/07 11:09:06;;;;;;;2.50;1.40;;;27.50;99.90;;;;;;4940324;29;20463;-82
2022/09/07 11:11:59;;;;;;;1.63;1.17;;;27.70;99.90;;;;;;4926869;29;20504;-82
2022/09/07 11:14:34;;;;;;;1.60;1.00;;;27.70;99.90;;;;;;4929117;29;20465;-82
2022/09/07 11:17:06;;;;;;;2.03;1.10;;;27.70;99.90;;;;;;4945780;29;20464;-82
2022/09/07 11:19:41;;;;;;;1.80;1.17;;;27.80;99.90;;;;;;4930443;29;20477;-82
2022/09/07 11:22:22;;;;;;;1.73;1.00;;;27.80;99.90;;;;;;4932073;29;20500;-82
2022/09/07 11:24:56;;;;;;;2.30;1.20;;;27.80;99.90;;;;;;4933128;29;20457;-80
2022/09/07 11:27:49;;;;;;;3.03;1.60;;;27.80;99.90;;;;;;4933463;29;20465;-82
2022/09/07 11:30:21;;;;;;;2.03;1.20;;;27.90;99.90;;;;;;4927389;29;20457;-82
2022/09/07 11:33:02;;;;;;;2.40;1.30;;;27.80;99.90;;;;;;4935873;29;20531;-82
2022/09/07 11:35:40;;;;;;;1.47;1.37;;;27.80;99.90;;;;;;4935993;29;20488;-83
2022/09/07 11:38:31;;;;;;;1.20;1.10;;;27.80;99.90;;;;;;4939347;29;20541;-82
2022/09/07 11:41:13;;;;;;;1.43;1.30;;;27.80;99.90;;;;;;4930525;29;20507;-82
2022/09/07 11:43:45;;;;;;;1.77;1.00;;;27.80;99.90;;;;;;4942096;29;20460;-82
2022/09/07 11:46:19;;;;;;;1.30;1.20;;;27.80;99.90;;;;;;4933418;28;20461;-82
2022/09/07 11:48:52;;;;;;;1.27;1.17;;;27.80;99.90;;;;;;4930111;29;20995;-82
2022/09/07 11:51:24;;;;;;;2.73;1.27;;;27.80;99.90;;;;;;4932037;29;20557;-81
2022/09/07 11:53:56;;;;;;;2.40;1.30;;;27.90;99.90;;;;;;4940487;29;20821;-81
2022/09/07 11:56:29;;;;;;;2.00;1.20;;;27.80;99.90;;;;;;4935045;29;21556;-82
2022/09/07 11:59:34;;;;;;;1.50;1.40;;;27.80;99.90;;;;;;4946553;28;20455;-82
2022/09/07 12:02:40;;;;;;;1.50;1.13;;;27.80;99.90;;;;;;4923197;29;20535;-82
2022/09/07 12:05:41;;;;;;;1.60;1.23;;;27.80;99.90;;;;;;4941417;29;20476;-82
2022/09/07 12:08:25;;;;;;;1.20;1.10;;;27.90;99.90;;;;;;4927114;29;20461;-82
2022/09/07 12:11:20;;;;;;;1.23;1.13;;;27.90;99.90;;;;;;4930562;29;20546;-81
2022/09/07 12:14:06;;;;;;;1.63;1.20;;;27.90;99.90;;;;;;4907115;29;20522;-82
2022/09/07 12:16:53;;;;;;;2.17;1.00;;;28.00;99.90;;;;;;4947132;28;20900;-82
2022/09/07 12:19:24;;;;;;;4.90;1.30;;;28.00;99.90;;;;;;4933138;29;20525;-81
2022/09/07 12:21:56;;;;;;;1.33;1.10;;;28.00;99.90;;;;;;4937307;29;20547;-81
2022/09/07 12:24:41;;;;;;;1.70;1.17;;;28.10;99.90;;;;;;4937512;29;20514;-81
2022/09/07 12:27:37;;;;;;;1.70;1.10;;;28.10;99.90;;;;;;4938210;29;20523;-80
2022/09/07 12:30:53;;;;;;;1.07;0.97;;;28.10;99.90;;;;;;4938848;29;20813;-80
2022/09/07 12:33:24;;;;;;;1.07;0.83;;;28.20;99.90;;;;;;4936475;29;20457;-80
2022/09/07 12:35:57;;;;;;;1.83;1.10;;;28.20;99.90;;;;;;4936813;29;20523;-79
2022/09/07 12:39:13;;;;;;;1.20;1.10;;;28.20;99.90;;;;;;4939357;29;20459;-80
2022/09/07 12:41:46;;;;;;;1.10;0.90;;;28.10;99.90;;;;;;4936374;29;20506;-81
2022/09/07 12:44:18;;;;;;;1.33;1.10;;;28.10;99.90;;;;;;4937501;29;20518;-81
2022/09/07 12:46:56;;;;;;;1.87;1.33;;;28.00;99.90;;;;;;4933790;29;20497;-80
2022/09/07 12:49:56;;;;;;;1.20;1.10;;;28.00;99.90;;;;;;4935984;29;20476;-81
2022/09/07 12:52:52;;;;;;;1.60;1.00;;;28.00;99.90;;;;;;4931853;29;20547;-81
2022/09/07 12:55:38;;;;;;;1.50;1.10;;;28.00;99.90;;;;;;4925705;29;20528;-81
2022/09/07 12:58:38;;;;;;;1.40;1.10;;;28.00;99.90;;;;;;4929260;29;20483;-81
2022/09/07 13:01:19;;;;;;;1.30;1.03;;;28.00;99.90;;;;;;4936301;29;21049;-81
2022/09/07 13:04:13;;;;;;;1.20;1.10;;;27.50;99.90;;;;;;4933576;29;20461;-81
2022/09/07 13:07:11;;;;;;;0.90;0.90;;;28.10;99.90;;;;;;4934181;29;20976;-81
2022/09/07 13:09:41;;;;;;;1.00;1.00;;;28.10;99.90;;;;;;4934609;29;21033;-81
2022/09/07 13:12:24;;;;;;;1.10;0.90;;;28.10;99.90;;;;;;4940449;28;20486;-80
2022/09/07 13:15:35;;;;;;;1.07;0.90;;;28.20;99.90;;;;;;4932717;29;20469;-81
2022/09/07 13:18:03;;;;;;;2.77;1.00;;;28.20;99.90;;;;;;4937298;29;20458;-80
2022/09/07 13:20:32;;;;;;;1.20;1.07;;;28.20;99.90;;;;;;4934749;29;21226;-80
2022/09/07 13:23:23;;;;;;;2.63;1.30;;;28.30;99.90;;;;;;4936410;29;20895;-81
2022/09/07 13:25:59;;;;;;;1.10;1.00;;;28.30;99.90;;;;;;4936662;29;20447;-79
2022/09/07 13:28:35;;;;;;;1.13;1.03;;;28.20;99.90;;;;;;4942300;29;20472;-82